sensor_id;sensor_type;location;lat;lon;timestamp;pressure;altitude;pressure_sealevel;temperature;humidity
56241;BME280;42155;53.096;23.226;2023-05-23T00:01:20;100071.53;;;12.57;76.35
56241;BME280;42155;53.096;23.226;2023-05-23T00:03:21;100035.56;;;12.32;76.15
56241;BME280;42155;53.096;23.226;2023-05-23T00:05:21;100059.97;;;12.37;76.04
56241;BME280;42155;53.096;23.226;2023-05-23T00:07:21;100064.06;;;12.41;76.34
56241;BME280;42155;53.096;23.226;2023-05-23T00:09:22;100079.31;;;12.39;76.78
56241;BME280;42155;53.096;23.226;2023-05-23T00:11:23;100069.78;;;12.36;76.20
56241;BME280;42155;53.096;23.226;2023-05-23T00:13:23;100065.53;;;12.34;76.32
56241;BME280;42155;53.096;23.226;2023-05-23T00:15:23;100074.66;;;12.31;75.92
56241;BME280;42155;53.096;23.226;2023-05-23T00:17:24;100080.22;;;12.28;76.12
56241;BME280;42155;53.096;23.226;2023-05-23T00:19:24;100073.38;;;12.26;75.81
56241;BME280;42155;53.096;23.226;2023-05-23T00:21:24;100059.88;;;12.17;75.93
56241;BME280;42155;53.096;23.226;2023-05-23T00:23:25;100070.50;;;12.17;76.11
56241;BME280;42155;53.096;23.226;2023-05-23T00:25:25;100070.75;;;12.14;75.76
56241;BME280;42155;53.096;23.226;2023-05-23T00:27:25;100068.38;;;12.11;75.81
56241;BME280;42155;53.096;23.226;2023-05-23T00:29:26;100069.63;;;12.07;76.31
56241;BME280;42155;53.096;23.226;2023-05-23T00:31:26;100027.69;;;11.79;75.97
56241;BME280;42155;53.096;23.226;2023-05-23T00:33:26;100060.44;;;12.00;75.96
56241;BME280;42155;53.096;23.226;2023-05-23T00:35:27;100063.34;;;11.97;76.21
56241;BME280;42155;53.096;23.226;2023-05-23T00:37:27;100063.34;;;11.97;75.60
56241;BME280;42155;53.096;23.226;2023-05-23T00:39:28;100067.28;;;11.93;75.50
56241;BME280;42155;53.096;23.226;2023-05-23T00:41:28;99969.69;;;11.31;75.74
56241;BME280;42155;53.096;23.226;2023-05-23T00:43:28;100069.59;;;11.86;75.73
56241;BME280;42155;53.096;23.226;2023-05-23T00:45:29;100044.41;;;11.69;75.74
56241;BME280;42155;53.096;23.226;2023-05-23T00:47:29;100059.84;;;11.76;76.16
56241;BME280;42155;53.096;23.226;2023-05-23T00:49:29;100057.94;;;11.66;76.04
56241;BME280;42155;53.096;23.226;2023-05-23T00:51:30;100071.09;;;11.68;75.97
56241;BME280;42155;53.096;23.226;2023-05-23T00:53:30;100069.22;;;11.59;75.49
56241;BME280;42155;53.096;23.226;2023-05-23T00:55:31;100075.38;;;11.59;76.28
56241;BME280;42155;53.096;23.226;2023-05-23T00:57:31;100072.25;;;11.54;76.01
56241;BME280;42155;53.096;23.226;2023-05-23T00:59:32;100057.19;;;11.43;76.07
56241;BME280;42155;53.096;23.226;2023-05-23T01:01:33;100074.97;;;11.43;76.30
56241;BME280;42155;53.096;23.226;2023-05-23T01:03:34;100061.44;;;11.35;76.37
56241;BME280;42155;53.096;23.226;2023-05-23T01:05:34;100078.38;;;11.34;75.63
56241;BME280;42155;53.096;23.226;2023-05-23T01:07:35;100062.91;;;11.28;75.67
56241;BME280;42155;53.096;23.226;2023-05-23T01:09:35;100067.06;;;11.20;75.65
56241;BME280;42155;53.096;23.226;2023-05-23T01:11:42;100083.59;;;11.24;75.57
56241;BME280;42155;53.096;23.226;2023-05-23T01:13:53;100078.66;;;11.19;75.26
56241;BME280;42155;53.096;23.226;2023-05-23T01:18:16;100083.50;;;11.14;76.02
56241;BME280;42155;53.096;23.226;2023-05-23T01:20:22;100080.38;;;11.09;75.44
56241;BME280;42155;53.096;23.226;2023-05-23T01:25:27;100081.81;;;11.02;75.57
56241;BME280;42155;53.096;23.226;2023-05-23T01:27:47;100075.06;;;10.98;75.82
56241;BME280;42155;53.096;23.226;2023-05-23T01:29:53;100082.31;;;10.96;75.59
56241;BME280;42155;53.096;23.226;2023-05-23T01:31:56;100077.25;;;10.93;75.63
56241;BME280;42155;53.096;23.226;2023-05-23T01:33:57;100066.84;;;10.90;75.81
56241;BME280;42155;53.096;23.226;2023-05-23T01:36:00;100077.25;;;10.93;75.64
56241;BME280;42155;53.096;23.226;2023-05-23T01:38:01;100074.47;;;10.94;75.72
56241;BME280;42155;53.096;23.226;2023-05-23T01:40:01;100076.63;;;10.89;75.07
56241;BME280;42155;53.096;23.226;2023-05-23T01:42:01;100065.69;;;10.83;74.86
56241;BME280;42155;53.096;23.226;2023-05-23T01:44:02;100069.31;;;10.82;75.38
56241;BME280;42155;53.096;23.226;2023-05-23T01:46:04;100061.09;;;10.74;75.74
56241;BME280;42155;53.096;23.226;2023-05-23T01:48:06;100042.78;;;10.59;75.60
56241;BME280;42155;53.096;23.226;2023-05-23T01:50:08;100063.16;;;10.70;75.86
56241;BME280;42155;53.096;23.226;2023-05-23T01:52:09;100062.91;;;10.73;75.39
56241;BME280;42155;53.096;23.226;2023-05-23T01:54:11;100047.34;;;10.57;75.59
56241;BME280;42155;53.096;23.226;2023-05-23T01:56:13;100050.84;;;10.58;75.63
56241;BME280;42155;53.096;23.226;2023-05-23T01:58:13;100062.53;;;10.66;75.43
56241;BME280;42155;53.096;23.226;2023-05-23T02:00:14;100052.78;;;10.56;75.70
56241;BME280;42155;53.096;23.226;2023-05-23T02:02:14;100070.16;;;10.60;76.21
56241;BME280;42155;53.096;23.226;2023-05-23T02:04:15;100055.06;;;10.49;75.74
56241;BME280;42155;53.096;23.226;2023-05-23T02:06:15;100062.78;;;10.52;75.79
56241;BME280;42155;53.096;23.226;2023-05-23T02:08:15;100039.88;;;10.40;75.55
56241;BME280;42155;53.096;23.226;2023-05-23T02:10:16;100052.56;;;10.59;75.45
56241;BME280;42155;53.096;23.226;2023-05-23T02:12:16;100051.69;;;10.58;75.69
56241;BME280;42155;53.096;23.226;2023-05-23T02:14:16;100035.06;;;10.45;75.38
56241;BME280;42155;53.096;23.226;2023-05-23T02:16:17;100052.78;;;10.56;75.93
56241;BME280;42155;53.096;23.226;2023-05-23T02:18:17;100067.25;;;10.52;75.49
56241;BME280;42155;53.096;23.226;2023-05-23T02:20:17;100051.94;;;10.44;75.98
56241;BME280;42155;53.096;23.226;2023-05-23T02:22:22;100054.00;;;10.40;75.95
56241;BME280;42155;53.096;23.226;2023-05-23T02:24:22;100064.97;;;10.47;75.71
56241;BME280;42155;53.096;23.226;2023-05-23T02:26:23;100054.84;;;10.41;76.21
56241;BME280;42155;53.096;23.226;2023-05-23T02:28:23;100064.97;;;10.47;75.85
56241;BME280;42155;53.096;23.226;2023-05-23T02:30:23;100041.44;;;10.31;75.88
56241;BME280;42155;53.096;23.226;2023-05-23T02:32:24;100050.25;;;10.32;75.97
56241;BME280;42155;53.096;23.226;2023-05-23T02:34:24;100054.09;;;10.39;75.36
56241;BME280;42155;53.096;23.226;2023-05-23T02:36:25;100032.03;;;10.27;75.49
56241;BME280;42155;53.096;23.226;2023-05-23T02:38:25;100062.06;;;10.50;75.42
56241;BME280;42155;53.096;23.226;2023-05-23T02:40:25;100032.41;;;10.34;75.70
56241;BME280;42155;53.096;23.226;2023-05-23T02:42:26;100048.53;;;10.53;76.26
56241;BME280;42155;53.096;23.226;2023-05-23T02:44:26;100025.66;;;10.41;76.25
56241;BME280;42155;53.096;23.226;2023-05-23T02:46:26;100054.22;;;10.60;75.60
56241;BME280;42155;53.096;23.226;2023-05-23T02:48:27;100053.13;;;10.62;76.12
56241;BME280;42155;53.096;23.226;2023-05-23T02:50:27;100058.34;;;10.64;76.18
56241;BME280;42155;53.096;23.226;2023-05-23T02:52:27;100029.97;;;10.53;76.31
56241;BME280;42155;53.096;23.226;2023-05-23T02:54:28;100055.19;;;10.70;76.43
56241;BME280;42155;53.096;23.226;2023-05-23T02:56:28;100059.16;;;10.76;75.88
56241;BME280;42155;53.096;23.226;2023-05-23T02:58:28;100049.00;;;10.81;75.88
56241;BME280;42155;53.096;23.226;2023-05-23T03:00:29;100046.81;;;10.86;76.69
56241;BME280;42155;53.096;23.226;2023-05-23T03:02:29;100054.56;;;10.89;76.41
56241;BME280;42155;53.096;23.226;2023-05-23T03:04:29;100047.31;;;10.91;76.13
56241;BME280;42155;53.096;23.226;2023-05-23T03:06:30;100053.09;;;10.96;76.44
56241;BME280;42155;53.096;23.226;2023-05-23T03:08:30;100048.50;;;10.98;77.05
56241;BME280;42155;53.096;23.226;2023-05-23T03:10:30;100040.03;;;11.04;77.17
56241;BME280;42155;53.096;23.226;2023-05-23T03:12:31;100040.25;;;11.12;77.15
56241;BME280;42155;53.096;23.226;2023-05-23T03:14:31;100043.66;;;11.14;77.44
56241;BME280;42155;53.096;23.226;2023-05-23T03:16:31;100041.19;;;11.22;77.31
56241;BME280;42155;53.096;23.226;2023-05-23T03:18:32;100038.16;;;11.27;76.90
56241;BME280;42155;53.096;23.226;2023-05-23T03:20:32;100038.63;;;11.32;77.07
56241;BME280;42155;53.096;23.226;2023-05-23T03:22:33;100040.91;;;11.37;77.70
56241;BME280;42155;53.096;23.226;2023-05-23T03:24:33;100027.44;;;11.29;77.52
56241;BME280;42155;53.096;23.226;2023-05-23T03:26:33;100044.50;;;11.47;77.68
56241;BME280;42155;53.096;23.226;2023-05-23T03:28:34;100023.25;;;11.47;77.30
56241;BME280;42155;53.096;23.226;2023-05-23T03:30:34;100041.78;;;11.58;77.18
56241;BME280;42155;53.096;23.226;2023-05-23T03:32:34;100036.69;;;11.66;77.70
56241;BME280;42155;53.096;23.226;2023-05-23T03:34:35;100038.97;;;11.71;77.29
56241;BME280;42155;53.096;23.226;2023-05-23T03:36:35;100043.03;;;11.75;77.18
56241;BME280;42155;53.096;23.226;2023-05-23T03:38:35;100032.03;;;11.80;77.59
56241;BME280;42155;53.096;23.226;2023-05-23T03:40:36;100027.78;;;11.88;76.86
56241;BME280;42155;53.096;23.226;2023-05-23T03:42:37;100023.75;;;11.94;77.34
56241;BME280;42155;53.096;23.226;2023-05-23T03:44:38;100002.28;;;11.86;76.86
56241;BME280;42155;53.096;23.226;2023-05-23T03:46:39;99989.81;;;11.86;77.22
56241;BME280;42155;53.096;23.226;2023-05-23T03:48:40;99979.38;;;11.94;76.93
56241;BME280;42155;53.096;23.226;2023-05-23T03:50:40;100011.25;;;12.15;76.69
56241;BME280;42155;53.096;23.226;2023-05-23T03:52:40;100022.97;;;12.34;76.71
56241;BME280;42155;53.096;23.226;2023-05-23T03:54:41;100034.22;;;12.47;76.04
56241;BME280;42155;53.096;23.226;2023-05-23T03:56:41;100031.75;;;12.55;76.03
56241;BME280;42155;53.096;23.226;2023-05-23T03:58:41;100022.25;;;12.62;75.93
56241;BME280;42155;53.096;23.226;2023-05-23T04:00:42;100026.22;;;12.78;75.37
56241;BME280;42155;53.096;23.226;2023-05-23T04:02:42;100029.06;;;12.86;75.59
56241;BME280;42155;53.096;23.226;2023-05-23T04:04:43;99929.38;;;12.29;75.80
56241;BME280;42155;53.096;23.226;2023-05-23T04:06:43;100012.78;;;12.89;75.80
56241;BME280;42155;53.096;23.226;2023-05-23T04:08:43;99961.28;;;12.59;76.29
56241;BME280;42155;53.096;23.226;2023-05-23T04:10:44;100015.91;;;13.04;76.31
56241;BME280;42155;53.096;23.226;2023-05-23T04:12:44;100013.25;;;13.13;76.46
56241;BME280;42155;53.096;23.226;2023-05-23T04:14:44;100012.84;;;13.18;76.48
56241;BME280;42155;53.096;23.226;2023-05-23T04:16:45;99990.25;;;13.12;76.17
56241;BME280;42155;53.096;23.226;2023-05-23T04:18:45;100014.56;;;13.29;76.25
56241;BME280;42155;53.096;23.226;2023-05-23T04:20:45;100018.78;;;13.41;75.79
56241;BME280;42155;53.096;23.226;2023-05-23T04:22:46;100012.88;;;13.47;75.64
56241;BME280;42155;53.096;23.226;2023-05-23T04:24:46;100018.06;;;13.58;75.51
56241;BME280;42155;53.096;23.226;2023-05-23T04:26:46;99957.59;;;13.30;75.85
56241;BME280;42155;53.096;23.226;2023-05-23T04:28:47;100013.44;;;13.60;75.55
56241;BME280;42155;53.096;23.226;2023-05-23T04:30:47;100003.03;;;13.57;76.29
56241;BME280;42155;53.096;23.226;2023-05-23T04:32:47;100021.13;;;13.63;76.35
56241;BME280;42155;53.096;23.226;2023-05-23T04:34:48;100010.59;;;13.71;76.35
56241;BME280;42155;53.096;23.226;2023-05-23T04:36:48;99989.28;;;13.62;76.13
56241;BME280;42155;53.096;23.226;2023-05-23T04:38:49;100013.69;;;13.76;75.85
56241;BME280;42155;53.096;23.226;2023-05-23T04:40:50;100017.91;;;13.79;75.86
56241;BME280;42155;53.096;23.226;2023-05-23T04:42:50;100014.09;;;13.82;75.77
56241;BME280;42155;53.096;23.226;2023-05-23T04:44:51;100009.47;;;13.93;75.75
56241;BME280;42155;53.096;23.226;2023-05-23T04:46:51;100008.00;;;14.09;75.38
56241;BME280;42155;53.096;23.226;2023-05-23T04:48:54;100006.41;;;14.25;74.81
56241;BME280;42155;53.096;23.226;2023-05-23T04:50:54;100005.34;;;14.46;74.68
56241;BME280;42155;53.096;23.226;2023-05-23T04:52:55;100006.88;;;14.58;74.57
56241;BME280;42155;53.096;23.226;2023-05-23T04:54:55;100011.03;;;14.70;74.29
56241;BME280;42155;53.096;23.226;2023-05-23T04:56:55;100006.22;;;14.74;73.66
56241;BME280;42155;53.096;23.226;2023-05-23T04:58:56;99987.00;;;14.70;73.69
56241;BME280;42155;53.096;23.226;2023-05-23T05:00:56;100013.38;;;15.01;73.14
56241;BME280;42155;53.096;23.226;2023-05-23T05:02:56;100002.78;;;15.09;72.98
56241;BME280;42155;53.096;23.226;2023-05-23T05:04:57;100005.53;;;15.17;72.36
56241;BME280;42155;53.096;23.226;2023-05-23T05:06:57;99985.91;;;15.09;73.04
56241;BME280;42155;53.096;23.226;2023-05-23T05:08:58;100005.63;;;15.25;72.62
56241;BME280;42155;53.096;23.226;2023-05-23T05:10:59;100004.72;;;15.35;72.95
56241;BME280;42155;53.096;23.226;2023-05-23T05:12:59;100002.78;;;15.45;72.53
56241;BME280;42155;53.096;23.226;2023-05-23T05:14:59;99999.41;;;15.61;72.55
56241;BME280;42155;53.096;23.226;2023-05-23T05:17:00;99988.56;;;15.62;72.00
56241;BME280;42155;53.096;23.226;2023-05-23T05:19:00;99990.00;;;15.74;72.28
56241;BME280;42155;53.096;23.226;2023-05-23T05:21:01;99994.06;;;15.78;72.24
56241;BME280;42155;53.096;23.226;2023-05-23T05:23:01;100009.19;;;15.88;71.94
56241;BME280;42155;53.096;23.226;2023-05-23T05:25:02;99993.84;;;15.98;71.68
56241;BME280;42155;53.096;23.226;2023-05-23T05:27:03;99998.97;;;16.09;71.39
56241;BME280;42155;53.096;23.226;2023-05-23T05:29:03;100001.00;;;16.15;71.20
56241;BME280;42155;53.096;23.226;2023-05-23T05:31:03;99963.81;;;16.12;70.86
56241;BME280;42155;53.096;23.226;2023-05-23T05:33:04;99994.78;;;16.41;70.80
56241;BME280;42155;53.096;23.226;2023-05-23T05:35:05;99995.84;;;16.56;70.29
56241;BME280;42155;53.096;23.226;2023-05-23T05:37:05;99998.47;;;16.74;69.71
56241;BME280;42155;53.096;23.226;2023-05-23T05:39:06;100002.53;;;16.94;69.10
56241;BME280;42155;53.096;23.226;2023-05-23T05:41:06;99990.34;;;17.16;68.67
56241;BME280;42155;53.096;23.226;2023-05-23T05:43:06;99993.38;;;17.38;67.73
56241;BME280;42155;53.096;23.226;2023-05-23T05:45:07;99994.75;;;17.58;66.93
56241;BME280;42155;53.096;23.226;2023-05-23T05:47:07;99991.94;;;17.76;66.19
56241;BME280;42155;53.096;23.226;2023-05-23T05:49:07;99997.25;;;17.92;65.27
56241;BME280;42155;53.096;23.226;2023-05-23T05:51:08;99968.88;;;17.98;64.24
56241;BME280;42155;53.096;23.226;2023-05-23T05:53:08;99998.19;;;18.32;63.60
56241;BME280;42155;53.096;23.226;2023-05-23T05:55:10;99998.81;;;18.50;62.18
56241;BME280;42155;53.096;23.226;2023-05-23T05:57:10;99946.94;;;18.42;61.77
56241;BME280;42155;53.096;23.226;2023-05-23T05:59:10;99965.63;;;18.66;60.81
56241;BME280;42155;53.096;23.226;2023-05-23T06:01:11;99988.84;;;18.98;60.73
56241;BME280;42155;53.096;23.226;2023-05-23T06:03:11;99982.56;;;19.14;59.73
56241;BME280;42155;53.096;23.226;2023-05-23T06:05:12;99985.78;;;19.32;59.47
56241;BME280;42155;53.096;23.226;2023-05-23T06:07:12;99958.22;;;19.30;59.04
56241;BME280;42155;53.096;23.226;2023-05-23T06:09:13;99972.13;;;19.57;58.84
56241;BME280;42155;53.096;23.226;2023-05-23T06:11:13;99978.34;;;19.80;58.47
56241;BME280;42155;53.096;23.226;2023-05-23T06:13:13;99986.56;;;20.02;57.92
56241;BME280;42155;53.096;23.226;2023-05-23T06:15:14;99968.34;;;20.04;57.11
56241;BME280;42155;53.096;23.226;2023-05-23T06:17:14;99961.50;;;20.16;56.32
56241;BME280;42155;53.096;23.226;2023-05-23T06:19:14;99984.44;;;20.42;56.35
56241;BME280;42155;53.096;23.226;2023-05-23T06:21:15;99974.22;;;20.52;55.68
56241;BME280;42155;53.096;23.226;2023-05-23T06:23:15;99977.09;;;20.65;55.01
56241;BME280;42155;53.096;23.226;2023-05-23T06:25:15;99972.78;;;20.85;53.90
56241;BME280;42155;53.096;23.226;2023-05-23T06:27:16;99962.00;;;21.07;53.55
56241;BME280;42155;53.096;23.226;2023-05-23T06:29:16;99964.22;;;21.18;53.46
56241;BME280;42155;53.096;23.226;2023-05-23T06:31:16;99962.41;;;21.25;53.15
56241;BME280;42155;53.096;23.226;2023-05-23T06:33:17;99953.00;;;21.36;51.99
56241;BME280;42155;53.096;23.226;2023-05-23T06:35:17;99957.28;;;21.52;52.02
56241;BME280;42155;53.096;23.226;2023-05-23T06:37:17;99959.13;;;21.73;52.51
56241;BME280;42155;53.096;23.226;2023-05-23T06:39:17;99949.69;;;21.90;52.17
56241;BME280;42155;53.096;23.226;2023-05-23T06:41:18;99933.13;;;22.00;51.23
56241;BME280;42155;53.096;23.226;2023-05-23T06:43:18;99950.41;;;22.33;50.54
56241;BME280;42155;53.096;23.226;2023-05-23T06:45:18;99946.75;;;22.48;49.56
56241;BME280;42155;53.096;23.226;2023-05-23T06:47:19;99950.13;;;22.63;48.91
56241;BME280;42155;53.096;23.226;2023-05-23T06:49:19;99946.66;;;22.82;49.20
56241;BME280;42155;53.096;23.226;2023-05-23T06:51:19;99917.84;;;23.16;48.03
56241;BME280;42155;53.096;23.226;2023-05-23T06:53:20;99939.13;;;23.72;46.98
56241;BME280;42155;53.096;23.226;2023-05-23T06:55:21;99944.94;;;23.82;46.94
56241;BME280;42155;53.096;23.226;2023-05-23T06:57:21;99944.91;;;24.02;46.17
56241;BME280;42155;53.096;23.226;2023-05-23T06:59:22;99939.88;;;24.19;45.11
56241;BME280;42155;53.096;23.226;2023-05-23T07:01:22;99940.25;;;24.43;45.49
56241;BME280;42155;53.096;23.226;2023-05-23T07:03:22;99914.50;;;24.65;44.01
56241;BME280;42155;53.096;23.226;2023-05-23T07:05:23;99938.75;;;24.98;44.06
56241;BME280;42155;53.096;23.226;2023-05-23T07:07:23;99934.91;;;25.12;42.81
56241;BME280;42155;53.096;23.226;2023-05-23T07:09:23;99926.38;;;25.09;43.59
56241;BME280;42155;53.096;23.226;2023-05-23T07:11:24;99925.03;;;25.25;43.77
56241;BME280;42155;53.096;23.226;2023-05-23T07:13:24;99927.91;;;25.55;42.73
56241;BME280;42155;53.096;23.226;2023-05-23T07:15:24;99921.31;;;25.69;41.77
56241;BME280;42155;53.096;23.226;2023-05-23T07:17:25;99926.06;;;25.80;42.34
56241;BME280;42155;53.096;23.226;2023-05-23T07:19:25;99921.03;;;26.02;41.93
56241;BME280;42155;53.096;23.226;2023-05-23T07:21:25;99918.69;;;26.24;41.61
56241;BME280;42155;53.096;23.226;2023-05-23T07:23:25;99910.91;;;26.28;40.90
56241;BME280;42155;53.096;23.226;2023-05-23T07:25:26;99911.66;;;26.35;40.11
56241;BME280;42155;53.096;23.226;2023-05-23T07:27:27;99895.56;;;26.15;40.24
56241;BME280;42155;53.096;23.226;2023-05-23T07:29:28;99912.94;;;26.32;38.70
56241;BME280;42155;53.096;23.226;2023-05-23T07:31:28;99914.38;;;26.35;38.59
56241;BME280;42155;53.096;23.226;2023-05-23T07:33:28;99858.25;;;26.22;38.66
56241;BME280;42155;53.096;23.226;2023-05-23T07:35:29;99838.81;;;26.19;38.88
56241;BME280;42155;53.096;23.226;2023-05-23T07:37:29;99888.22;;;26.52;38.68
56241;BME280;42155;53.096;23.226;2023-05-23T07:39:29;99902.78;;;26.76;37.90
56241;BME280;42155;53.096;23.226;2023-05-23T07:41:30;99871.69;;;26.54;37.64
56241;BME280;42155;53.096;23.226;2023-05-23T07:43:30;99894.38;;;26.78;38.13
56241;BME280;42155;53.096;23.226;2023-05-23T07:45:30;99901.28;;;26.92;37.40
56241;BME280;42155;53.096;23.226;2023-05-23T07:47:31;99904.97;;;26.98;37.73
56241;BME280;42155;53.096;23.226;2023-05-23T07:49:31;99904.97;;;26.98;35.86
56241;BME280;42155;53.096;23.226;2023-05-23T07:51:31;99893.81;;;26.57;35.69
56241;BME280;42155;53.096;23.226;2023-05-23T07:53:32;99847.34;;;26.22;35.53
56241;BME280;42155;53.096;23.226;2023-05-23T07:55:32;99903.72;;;26.52;34.32
56241;BME280;42155;53.096;23.226;2023-05-23T07:57:32;99898.41;;;26.38;34.19
56241;BME280;42155;53.096;23.226;2023-05-23T07:59:33;99875.22;;;26.36;34.31
56241;BME280;42155;53.096;23.226;2023-05-23T08:01:33;99892.97;;;26.57;34.98
56241;BME280;42155;53.096;23.226;2023-05-23T08:03:33;99895.66;;;26.75;34.99
56241;BME280;42155;53.096;23.226;2023-05-23T08:05:34;99890.13;;;26.82;34.89
56241;BME280;42155;53.096;23.226;2023-05-23T08:07:34;99888.56;;;26.74;33.98
56241;BME280;42155;53.096;23.226;2023-05-23T08:09:34;99879.84;;;26.35;33.73
56241;BME280;42155;53.096;23.226;2023-05-23T08:11:35;99884.28;;;26.30;33.93
56241;BME280;42155;53.096;23.226;2023-05-23T08:13:35;99882.09;;;26.20;34.90
56241;BME280;42155;53.096;23.226;2023-05-23T08:15:36;99883.47;;;26.48;34.92
56241;BME280;42155;53.096;23.226;2023-05-23T08:17:36;99892.28;;;26.61;35.35
56241;BME280;42155;53.096;23.226;2023-05-23T08:19:36;99881.09;;;26.70;35.07
56241;BME280;42155;53.096;23.226;2023-05-23T08:21:37;99871.84;;;26.71;34.43
56241;BME280;42155;53.096;23.226;2023-05-23T08:23:37;99877.53;;;26.69;35.12
56241;BME280;42155;53.096;23.226;2023-05-23T08:25:38;99871.53;;;26.79;35.49
56241;BME280;42155;53.096;23.226;2023-05-23T08:27:38;99864.31;;;26.84;35.61
56241;BME280;42155;53.096;23.226;2023-05-23T08:29:38;99874.31;;;26.90;33.61
56241;BME280;42155;53.096;23.226;2023-05-23T08:31:39;99834.03;;;26.51;32.88
56241;BME280;42155;53.096;23.226;2023-05-23T08:33:39;99864.66;;;26.76;34.56
56241;BME280;42155;53.096;23.226;2023-05-23T08:35:39;99869.31;;;26.87;35.42
56241;BME280;42155;53.096;23.226;2023-05-23T08:37:40;99872.91;;;27.00;33.10
56241;BME280;42155;53.096;23.226;2023-05-23T08:39:40;99871.00;;;27.00;32.50
56241;BME280;42155;53.096;23.226;2023-05-23T08:41:40;99868.63;;;26.62;32.46
56241;BME280;42155;53.096;23.226;2023-05-23T08:43:41;99849.78;;;26.30;32.56
56241;BME280;42155;53.096;23.226;2023-05-23T08:45:41;99878.50;;;26.45;33.89
56241;BME280;42155;53.096;23.226;2023-05-23T08:47:42;99866.78;;;26.44;32.93
56241;BME280;42155;53.096;23.226;2023-05-23T08:49:44;99864.72;;;26.39;33.49
56241;BME280;42155;53.096;23.226;2023-05-23T08:51:45;99871.53;;;26.30;32.84
56241;BME280;42155;53.096;23.226;2023-05-23T08:53:47;99867.81;;;26.25;32.13
56241;BME280;42155;53.096;23.226;2023-05-23T08:55:47;99877.19;;;26.29;31.45
56241;BME280;42155;53.096;23.226;2023-05-23T08:57:48;99835.25;;;26.18;31.64
56241;BME280;42155;53.096;23.226;2023-05-23T08:59:50;99861.50;;;26.61;31.47
56241;BME280;42155;53.096;23.226;2023-05-23T09:01:54;99864.19;;;26.79;30.94
56241;BME280;42155;53.096;23.226;2023-05-23T09:03:54;99838.03;;;26.78;31.77
56241;BME280;42155;53.096;23.226;2023-05-23T09:05:55;99837.13;;;26.96;32.12
56241;BME280;42155;53.096;23.226;2023-05-23T09:07:56;99855.66;;;27.17;31.61
56241;BME280;42155;53.096;23.226;2023-05-23T09:09:56;99856.84;;;27.22;31.71
56241;BME280;42155;53.096;23.226;2023-05-23T09:11:57;99851.66;;;27.20;31.03
56241;BME280;42155;53.096;23.226;2023-05-23T09:14:05;99856.50;;;27.18;31.14
56241;BME280;42155;53.096;23.226;2023-05-23T09:16:50;99849.50;;;27.10;30.15
56241;BME280;42155;53.096;23.226;2023-05-23T09:19:21;99851.06;;;26.88;30.24
56241;BME280;42155;53.096;23.226;2023-05-23T09:21:41;99847.91;;;26.61;29.95
56241;BME280;42155;53.096;23.226;2023-05-23T09:24:17;99851.56;;;26.55;30.39
56241;BME280;42155;53.096;23.226;2023-05-23T09:26:37;99849.72;;;26.67;31.03
56241;BME280;42155;53.096;23.226;2023-05-23T09:28:39;99845.50;;;26.83;31.22
56241;BME280;42155;53.096;23.226;2023-05-23T09:30:39;99850.13;;;26.94;30.99
56241;BME280;42155;53.096;23.226;2023-05-23T09:32:39;99800.75;;;26.79;31.15
56241;BME280;42155;53.096;23.226;2023-05-23T09:34:56;99850.34;;;27.11;31.09
56241;BME280;42155;53.096;23.226;2023-05-23T09:36:57;99851.69;;;27.02;31.19
56241;BME280;42155;53.096;23.226;2023-05-23T09:39:01;99826.44;;;26.83;30.95
56241;BME280;42155;53.096;23.226;2023-05-23T09:41:02;99822.84;;;26.71;30.86
56241;BME280;42155;53.096;23.226;2023-05-23T09:43:07;99835.03;;;26.68;31.41
56241;BME280;42155;53.096;23.226;2023-05-23T09:45:15;99838.34;;;26.70;31.14
56241;BME280;42155;53.096;23.226;2023-05-23T09:47:16;99847.84;;;26.79;31.95
56241;BME280;42155;53.096;23.226;2023-05-23T09:49:17;99841.63;;;26.90;30.74
56241;BME280;42155;53.096;23.226;2023-05-23T09:51:19;99840.44;;;26.86;31.30
56241;BME280;42155;53.096;23.226;2023-05-23T09:53:20;99839.09;;;26.77;32.33
56241;BME280;42155;53.096;23.226;2023-05-23T09:55:20;99777.16;;;26.42;32.27
56241;BME280;42155;53.096;23.226;2023-05-23T09:57:21;99830.13;;;26.88;32.47
56241;BME280;42155;53.096;23.226;2023-05-23T09:59:22;99835.00;;;26.98;31.72
56241;BME280;42155;53.096;23.226;2023-05-23T10:01:24;99834.16;;;26.98;31.30
56241;BME280;42155;53.096;23.226;2023-05-23T10:03:34;99828.84;;;27.03;31.52
56241;BME280;42155;53.096;23.226;2023-05-23T10:05:48;99831.50;;;27.09;31.13
56241;BME280;42155;53.096;23.226;2023-05-23T10:07:49;99828.06;;;27.14;31.42
56241;BME280;42155;53.096;23.226;2023-05-23T10:09:55;99819.78;;;27.09;30.75
56241;BME280;42155;53.096;23.226;2023-05-23T10:14:15;99818.84;;;26.85;30.72
56241;BME280;42155;53.096;23.226;2023-05-23T10:18:26;99822.59;;;26.60;31.29
56241;BME280;42155;53.096;23.226;2023-05-23T10:20:30;99813.34;;;26.61;30.83
56241;BME280;42155;53.096;23.226;2023-05-23T10:22:31;99818.00;;;26.73;30.83
56241;BME280;42155;53.096;23.226;2023-05-23T10:24:32;99822.66;;;26.84;32.20
56241;BME280;42155;53.096;23.226;2023-05-23T10:26:33;99784.66;;;26.77;31.32
56241;BME280;42155;53.096;23.226;2023-05-23T10:28:34;99820.50;;;27.16;31.16
56241;BME280;42155;53.096;23.226;2023-05-23T10:30:34;99818.38;;;27.18;30.47
56241;BME280;42155;53.096;23.226;2023-05-23T10:32:38;99816.88;;;27.04;30.92
56241;BME280;42155;53.096;23.226;2023-05-23T10:35:03;99770.41;;;26.75;31.54
56241;BME280;42155;53.096;23.226;2023-05-23T10:37:11;99798.84;;;26.79;31.06
56241;BME280;42155;53.096;23.226;2023-05-23T10:39:18;99814.47;;;26.72;31.04
56241;BME280;42155;53.096;23.226;2023-05-23T10:41:28;99789.28;;;26.47;31.18